createdAt,value
2023-06-27T00:01:29.000Z,100742.09
2023-06-27T00:03:55.727Z,100743.28
2023-06-27T00:06:22.386Z,100741.84
2023-06-27T00:08:50.146Z,100745.31
2023-06-27T00:11:18.028Z,100735.28
2023-06-27T00:13:44.939Z,100725.13
2023-06-27T00:16:16.662Z,100719.59
2023-06-27T00:18:49.637Z,100720.00
2023-06-27T00:21:17.316Z,100723.09
2023-06-27T00:23:44.919Z,100722.03
2023-06-27T00:26:15.115Z,100707.66
2023-06-27T00:28:41.752Z,100725.00
2023-06-27T00:31:08.564Z,100718.41
2023-06-27T00:33:35.249Z,100715.88
2023-06-27T00:36:01.925Z,100719.38
2023-06-27T00:38:28.571Z,100725.97
2023-06-27T00:40:55.168Z,100718.63
2023-06-27T00:43:21.749Z,100718.97
2023-06-27T00:45:48.432Z,100714.06
2023-06-27T00:48:15.873Z,100709.75
2023-06-27T00:50:44.686Z,100714.03
2023-06-27T00:53:12.795Z,100705.56
2023-06-27T00:55:41.013Z,100709.97
2023-06-27T00:58:11.285Z,100713.31
2023-06-27T01:00:38.366Z,100704.84
2023-06-27T01:03:05.310Z,100699.78
2023-06-27T01:05:33.146Z,100702.00
2023-06-27T01:08:21.385Z,100702.84
2023-06-27T01:10:54.303Z,100700.47
2023-06-27T01:13:34.487Z,100697.13
2023-06-27T01:16:01.836Z,100699.88
2023-06-27T01:18:32.640Z,100701.47
2023-06-27T01:21:00.973Z,100700.38
2023-06-27T01:23:34.033Z,100701.94
2023-06-27T01:26:08.441Z,100699.91
2023-06-27T01:28:37.266Z,100703.72
2023-06-27T01:31:04.737Z,100701.31
2023-06-27T01:33:47.257Z,100695.47
2023-06-27T01:36:16.484Z,100700.06
2023-06-27T01:38:47.471Z,100688.25
2023-06-27T01:41:19.446Z,100688.13
2023-06-27T01:43:47.103Z,100689.88
2023-06-27T01:46:14.495Z,100694.19
2023-06-27T01:48:42.053Z,100679.84
2023-06-27T01:51:10.074Z,100685.69
2023-06-27T01:53:37.484Z,100688.09
2023-06-27T01:56:05.096Z,100678.63
2023-06-27T01:58:31.803Z,100677.34
2023-06-27T02:00:58.515Z,100682.94
2023-06-27T02:03:25.305Z,100684.88
2023-06-27T02:05:51.973Z,100678.06
2023-06-27T02:08:18.579Z,100679.38
2023-06-27T02:10:45.167Z,100670.16
2023-06-27T02:13:11.846Z,100674.00
2023-06-27T02:15:38.620Z,100664.03
2023-06-27T02:18:05.848Z,100660.00
2023-06-27T02:20:32.806Z,100660.84
2023-06-27T02:22:59.360Z,100661.19
2023-06-27T02:25:25.977Z,100660.69
2023-06-27T02:27:52.648Z,100659.72
2023-06-27T02:30:19.296Z,100659.41
2023-06-27T02:32:45.967Z,100656.88
2023-06-27T02:35:16.253Z,100649.66
2023-06-27T02:37:44.165Z,100649.53
2023-06-27T02:40:11.225Z,100652.88
2023-06-27T02:42:37.856Z,100646.44
2023-06-27T02:45:04.837Z,100650.88
2023-06-27T02:47:31.493Z,100654.22
2023-06-27T02:49:58.160Z,100644.59
2023-06-27T02:52:24.784Z,100643.25
2023-06-27T02:54:51.511Z,100646.47
2023-06-27T02:57:18.108Z,100649.44
2023-06-27T02:59:44.726Z,100657.06
2023-06-27T03:02:12.679Z,100648.31
2023-06-27T03:04:39.782Z,100655.72
2023-06-27T03:07:06.956Z,100655.94
2023-06-27T03:09:34.035Z,100652.00
2023-06-27T03:12:00.655Z,100654.75
2023-06-27T03:14:27.409Z,100642.91
2023-06-27T03:16:55.698Z,100649.09
2023-06-27T03:19:30.698Z,100647.81
2023-06-27T03:22:08.951Z,100651.38
2023-06-27T03:24:35.548Z,100647.81
2023-06-27T03:27:02.176Z,100645.06
2023-06-27T03:29:28.783Z,100643.41
2023-06-27T03:31:58.680Z,100650.91
2023-06-27T03:34:25.707Z,100650.91
2023-06-27T03:36:52.537Z,100650.22
2023-06-27T03:39:19.235Z,100653.22
2023-06-27T03:41:45.834Z,100647.47
2023-06-27T03:44:12.504Z,100647.03
2023-06-27T03:46:40.178Z,100646.19
2023-06-27T03:49:06.801Z,100651.44
2023-06-27T03:51:34.959Z,100657.75
2023-06-27T03:54:03.652Z,100650.75
2023-06-27T03:56:30.793Z,100653.03
2023-06-27T03:58:57.505Z,100648.28
2023-06-27T04:01:24.186Z,100648.22
2023-06-27T04:03:51.345Z,100652.53
2023-06-27T04:06:19.813Z,100641.81
2023-06-27T04:08:46.462Z,100646.38
2023-06-27T04:11:13.113Z,100642.56
2023-06-27T04:13:39.683Z,100644.56
2023-06-27T04:16:06.511Z,100642.56
2023-06-27T04:18:33.132Z,100640.19
2023-06-27T04:21:00.271Z,100644.72
2023-06-27T04:23:27.261Z,100645.72
2023-06-27T04:26:04.688Z,100642.81
2023-06-27T04:28:35.113Z,100646.06
2023-06-27T04:31:03.307Z,100645.75
2023-06-27T04:33:30.562Z,100655.53
2023-06-27T04:36:02.655Z,100657.22
2023-06-27T04:38:38.813Z,100655.78
2023-06-27T04:41:09.442Z,100655.91
2023-06-27T04:43:37.685Z,100658.41
2023-06-27T04:46:04.883Z,100655.66
2023-06-27T04:48:31.932Z,100661.03
2023-06-27T04:50:59.270Z,100653.81
2023-06-27T04:53:26.981Z,100661.56
2023-06-27T04:55:54.555Z,100658.34
2023-06-27T04:58:21.988Z,100667.25
2023-06-27T05:00:49.015Z,100654.63
2023-06-27T05:03:16.345Z,100660.06
2023-06-27T05:05:43.480Z,100670.28
2023-06-27T05:08:11.329Z,100665.78
2023-06-27T05:10:38.237Z,100659.88
2023-06-27T05:13:05.136Z,100665.50
2023-06-27T05:15:31.691Z,100668.06
2023-06-27T05:18:07.419Z,100672.06
2023-06-27T05:20:34.172Z,100665.03
2023-06-27T05:23:02.369Z,100668.75
2023-06-27T05:25:30.201Z,100671.50
2023-06-27T05:27:57.032Z,100675.59
2023-06-27T05:30:24.101Z,100671.66
2023-06-27T05:32:50.981Z,100667.53
2023-06-27T05:35:17.773Z,100685.44
2023-06-27T05:37:44.463Z,100675.69
2023-06-27T05:40:12.331Z,100681.78
2023-06-27T05:42:39.279Z,100677.66
2023-06-27T05:45:06.582Z,100679.00
2023-06-27T05:47:33.435Z,100681.94
2023-06-27T05:50:00.232Z,100674.81
2023-06-27T05:52:26.982Z,100681.56
2023-06-27T05:54:53.595Z,100679.84
2023-06-27T05:57:20.416Z,100678.78
2023-06-27T05:59:47.522Z,100674.63
2023-06-27T06:02:14.504Z,100675.66
2023-06-27T06:04:41.172Z,100673.59
2023-06-27T06:07:07.841Z,100672.94
2023-06-27T06:09:34.604Z,100669.94
2023-06-27T06:12:01.247Z,100666.75
2023-06-27T06:14:27.962Z,100665.63
2023-06-27T06:16:54.887Z,100661.28
2023-06-27T06:19:21.526Z,100671.66
2023-06-27T06:21:48.132Z,100663.16
2023-06-27T06:24:17.630Z,100662.94
2023-06-27T06:26:44.187Z,100672.66
2023-06-27T06:29:14.320Z,100654.03
2023-06-27T06:31:41.958Z,100661.44
2023-06-27T06:34:08.998Z,100666.44
2023-06-27T06:36:35.714Z,100673.13
2023-06-27T06:39:02.416Z,100661.91
2023-06-27T06:41:29.023Z,100674.75
2023-06-27T06:43:55.608Z,100665.84
2023-06-27T06:46:22.409Z,100676.31
2023-06-27T06:48:49.125Z,100679.13
2023-06-27T06:51:15.852Z,100679.22
2023-06-27T06:53:42.444Z,100679.16
2023-06-27T06:56:09.138Z,100678.94
2023-06-27T06:58:35.780Z,100685.09
2023-06-27T07:01:02.462Z,100673.81
2023-06-27T07:03:29.056Z,100673.75
2023-06-27T07:05:55.628Z,100678.84
2023-06-27T07:08:22.252Z,100671.34
2023-06-27T07:10:48.982Z,100670.75
2023-06-27T07:13:15.557Z,100673.84
2023-06-27T07:15:42.440Z,100675.63
2023-06-27T07:18:09.317Z,100681.03
2023-06-27T07:20:36.443Z,100681.50
2023-06-27T07:23:03.066Z,100679.63
2023-06-27T07:25:30.684Z,100680.28
2023-06-27T07:27:57.271Z,100675.16
2023-06-27T07:30:23.840Z,100670.59
2023-06-27T07:32:50.865Z,100669.94
2023-06-27T07:35:17.465Z,100677.16
2023-06-27T07:37:44.086Z,100680.06
2023-06-27T07:40:12.292Z,100668.63
2023-06-27T07:42:39.043Z,100671.72
2023-06-27T07:45:06.476Z,100666.88
2023-06-27T07:47:33.208Z,100658.97
2023-06-27T07:49:59.810Z,100663.66
2023-06-27T07:52:26.486Z,100670.50
2023-06-27T07:54:53.355Z,100667.25
2023-06-27T07:57:20.065Z,100672.78
2023-06-27T07:59:46.813Z,100661.81
2023-06-27T08:02:13.661Z,100673.75
2023-06-27T08:04:40.409Z,100672.44
2023-06-27T08:07:07.180Z,100665.00
2023-06-27T08:09:33.858Z,100669.47
2023-06-27T08:12:03.640Z,100657.91
2023-06-27T08:14:30.939Z,100670.19
2023-06-27T08:16:57.749Z,100670.44
2023-06-27T08:19:24.481Z,100663.16
2023-06-27T08:21:51.068Z,100669.47
2023-06-27T08:24:17.644Z,100662.38
2023-06-27T08:26:46.354Z,100672.03
2023-06-27T08:29:13.124Z,100664.78
2023-06-27T08:31:39.859Z,100661.75
2023-06-27T08:34:06.565Z,100663.78
2023-06-27T08:36:33.261Z,100668.63
2023-06-27T08:38:59.927Z,100670.06
2023-06-27T08:41:27.044Z,100667.41
2023-06-27T08:43:55.490Z,100673.31
2023-06-27T08:46:24.127Z,100668.22
2023-06-27T08:48:54.232Z,100673.94
2023-06-27T08:51:23.168Z,100666.03
2023-06-27T08:53:53.538Z,100662.94
2023-06-27T08:56:22.022Z,100655.19
2023-06-27T08:58:54.744Z,100667.06
2023-06-27T09:01:24.003Z,100652.25
2023-06-27T09:03:51.086Z,100654.00
2023-06-27T09:06:18.660Z,100651.41
2023-06-27T09:08:45.409Z,100655.94
2023-06-27T09:11:12.070Z,100647.81
2023-06-27T09:13:39.154Z,100651.97
2023-06-27T09:16:07.127Z,100644.63
2023-06-27T09:18:37.137Z,100650.78
2023-06-27T09:21:04.216Z,100644.22
2023-06-27T09:23:34.678Z,100658.09
2023-06-27T09:26:11.807Z,100653.28
2023-06-27T09:28:52.297Z,100653.47
2023-06-27T09:31:23.253Z,100640.81
2023-06-27T09:33:52.661Z,100641.09
2023-06-27T09:39:11.829Z,100654.94
2023-06-27T09:41:43.750Z,100641.63
2023-06-27T09:44:14.858Z,100646.00
2023-06-27T09:46:43.560Z,100642.13
2023-06-27T09:49:10.724Z,100650.53
2023-06-27T09:51:38.085Z,100648.25
2023-06-27T09:54:05.278Z,100643.75
2023-06-27T09:56:33.402Z,100641.09
2023-06-27T10:01:59.778Z,100643.97
2023-06-27T10:06:56.087Z,100633.13
2023-06-27T10:09:23.162Z,100632.06
2023-06-27T10:11:50.609Z,100632.00
2023-06-27T10:14:19.185Z,100627.84
2023-06-27T10:16:47.044Z,100635.13
2023-06-27T10:19:14.476Z,100628.34
2023-06-27T10:21:41.878Z,100628.81
2023-06-27T10:24:10.834Z,100626.22
2023-06-27T10:26:37.584Z,100618.06
2023-06-27T10:29:16.581Z,100609.06
2023-06-27T10:31:46.936Z,100604.47
2023-06-27T10:34:29.026Z,100608.28
2023-06-27T10:36:55.652Z,100602.41
2023-06-27T10:39:35.801Z,100603.75
2023-06-27T10:42:17.254Z,100607.66
2023-06-27T10:45:06.761Z,100606.75
2023-06-27T10:47:46.065Z,100604.81
2023-06-27T10:50:14.214Z,100600.13
2023-06-27T10:52:59.288Z,100597.22
2023-06-27T10:55:29.939Z,100582.81
2023-06-27T10:58:11.818Z,100575.56
2023-06-27T11:00:43.682Z,100583.22
2023-06-27T11:03:10.952Z,100587.34
2023-06-27T11:05:48.559Z,100578.47
2023-06-27T11:08:16.446Z,100575.69
2023-06-27T11:10:52.040Z,100578.94
2023-06-27T11:13:23.684Z,100580.81
2023-06-27T11:15:52.699Z,100578.75
2023-06-27T11:18:20.565Z,100569.94
2023-06-27T11:20:48.896Z,100565.00
2023-06-27T11:23:16.292Z,100563.84
2023-06-27T11:25:46.806Z,100559.28
2023-06-27T11:28:16.850Z,100556.56
2023-06-27T11:30:43.758Z,100556.03
2023-06-27T11:33:13.309Z,100549.34
2023-06-27T11:35:43.497Z,100549.13
2023-06-27T11:38:10.842Z,100533.88
2023-06-27T11:40:38.029Z,100534.00
2023-06-27T11:43:07.197Z,100537.69
2023-06-27T11:45:35.107Z,100540.28
2023-06-27T11:48:03.563Z,100535.81
2023-06-27T11:50:30.338Z,100533.69
2023-06-27T11:52:58.584Z,100524.97
2023-06-27T11:55:25.909Z,100512.88
2023-06-27T11:57:57.066Z,100522.75
2023-06-27T12:00:27.232Z,100516.34
2023-06-27T12:02:56.319Z,100519.06
2023-06-27T12:05:28.253Z,100502.81
2023-06-27T12:07:58.574Z,100505.81
2023-06-27T12:10:25.646Z,100493.50
2023-06-27T12:12:52.678Z,100496.22
2023-06-27T12:15:19.605Z,100488.88
2023-06-27T12:18:00.267Z,100487.84
2023-06-27T12:20:39.873Z,100480.63
2023-06-27T12:23:06.954Z,100474.69
2023-06-27T12:25:33.674Z,100470.53
2023-06-27T12:28:00.329Z,100453.47
2023-06-27T12:30:27.010Z,100466.09
2023-06-27T12:32:53.668Z,100465.97
2023-06-27T12:35:20.385Z,100459.06
2023-06-27T12:37:46.960Z,100458.41
2023-06-27T12:40:14.854Z,100460.22
2023-06-27T12:42:43.913Z,100450.97
2023-06-27T12:45:12.347Z,100449.81
2023-06-27T12:47:44.693Z,100452.91
2023-06-27T12:50:12.483Z,100436.94
2023-06-27T12:52:39.214Z,100436.13
2023-06-27T12:55:06.967Z,100428.13
2023-06-27T12:57:34.087Z,100421.28
2023-06-27T13:00:05.058Z,100416.50
2023-06-27T13:02:35.176Z,100416.72
2023-06-27T13:05:07.076Z,100411.34
2023-06-27T13:07:34.692Z,100409.97
2023-06-27T13:10:04.943Z,100407.38
2023-06-27T13:12:31.592Z,100405.25
2023-06-27T13:14:58.220Z,100407.72
2023-06-27T13:17:24.965Z,100404.22
2023-06-27T13:19:52.558Z,100393.53
2023-06-27T13:22:19.224Z,100389.50
2023-06-27T13:24:45.873Z,100389.94
2023-06-27T13:27:12.500Z,100382.25
2023-06-27T13:29:39.098Z,100390.00
2023-06-27T13:32:05.949Z,100376.63
2023-06-27T13:34:32.567Z,100362.09
2023-06-27T13:36:59.740Z,100362.78
2023-06-27T13:39:27.027Z,100359.81
2023-06-27T13:41:53.628Z,100355.09
2023-06-27T13:44:20.170Z,100357.03
2023-06-27T13:46:46.761Z,100360.16
2023-06-27T13:49:13.332Z,100352.56
2023-06-27T13:51:40.419Z,100348.41
2023-06-27T13:54:07.114Z,100336.03
2023-06-27T13:56:36.930Z,100323.91
2023-06-27T13:59:04.176Z,100337.22
2023-06-27T14:01:30.753Z,100332.72
2023-06-27T14:03:59.884Z,100321.13
2023-06-27T14:06:27.277Z,100326.34
2023-06-27T14:08:53.866Z,100322.00
2023-06-27T14:11:20.481Z,100309.16
2023-06-27T14:13:47.582Z,100308.03
2023-06-27T14:16:14.250Z,100306.75
2023-06-27T14:18:40.967Z,100303.34
2023-06-27T14:21:10.190Z,100304.28
2023-06-27T14:23:37.665Z,100297.34
2023-06-27T14:26:05.855Z,100308.81
2023-06-27T14:28:33.940Z,100304.06
2023-06-27T14:31:01.834Z,100307.00
2023-06-27T14:33:28.838Z,100302.38
2023-06-27T14:35:56.187Z,100308.47
2023-06-27T14:38:23.777Z,100305.69
2023-06-27T14:40:50.904Z,100293.28
2023-06-27T14:43:20.310Z,100297.78
2023-06-27T14:45:47.678Z,100305.22
2023-06-27T14:48:15.165Z,100308.88
2023-06-27T14:50:43.191Z,100306.31
2023-06-27T14:53:10.078Z,100316.44
2023-06-27T14:55:36.798Z,100315.91
2023-06-27T14:58:03.401Z,100315.91
2023-06-27T15:00:31.022Z,100318.44
2023-06-27T15:02:57.539Z,100316.50
2023-06-27T15:05:24.556Z,100312.78
2023-06-27T15:07:53.418Z,100314.75
2023-06-27T15:10:21.255Z,100304.19
2023-06-27T15:12:47.868Z,100301.50
2023-06-27T15:15:15.017Z,100301.84
2023-06-27T15:17:41.830Z,100307.34
2023-06-27T15:20:09.022Z,100309.06
2023-06-27T15:22:35.605Z,100309.38
2023-06-27T15:25:02.374Z,100302.38
2023-06-27T15:27:29.188Z,100306.56
2023-06-27T15:29:55.794Z,100300.34
2023-06-27T15:32:22.385Z,100300.09
2023-06-27T15:34:49.018Z,100296.44
2023-06-27T15:37:15.662Z,100291.16
2023-06-27T15:39:42.353Z,100294.97
2023-06-27T15:42:09.056Z,100291.84
2023-06-27T15:44:37.254Z,100288.56
2023-06-27T15:47:04.078Z,100297.19
2023-06-27T15:49:30.702Z,100297.34
2023-06-27T15:51:57.274Z,100282.31
2023-06-27T15:54:23.852Z,100287.97
2023-06-27T15:56:50.503Z,100282.41
2023-06-27T15:59:17.182Z,100279.91
2023-06-27T16:01:44.583Z,100275.16
2023-06-27T16:04:11.605Z,100273.75
2023-06-27T16:06:38.355Z,100282.69
2023-06-27T16:09:05.711Z,100279.91
2023-06-27T16:11:32.867Z,100287.09
2023-06-27T16:14:00.628Z,100284.31
2023-06-27T16:16:27.135Z,100292.50
2023-06-27T16:18:54.023Z,100297.94
2023-06-27T16:21:20.713Z,100315.25
2023-06-27T16:23:47.366Z,100295.91
2023-06-27T16:26:14.018Z,100299.31
2023-06-27T16:28:41.501Z,100321.16
2023-06-27T16:31:08.718Z,100313.19
2023-06-27T16:33:35.671Z,100325.63
2023-06-27T16:36:02.299Z,100311.38
2023-06-27T16:38:29.032Z,100317.28
2023-06-27T16:40:55.682Z,100310.63
2023-06-27T16:43:22.345Z,100325.44
2023-06-27T16:45:48.919Z,100307.13
2023-06-27T16:48:15.658Z,100312.66
2023-06-27T16:50:42.617Z,100310.41
2023-06-27T16:53:09.393Z,100321.72
2023-06-27T16:55:36.147Z,100315.88
2023-06-27T16:58:02.847Z,100326.22
2023-06-27T17:00:29.482Z,100313.63
2023-06-27T17:02:56.351Z,100313.94
2023-06-27T17:05:23.043Z,100321.09
2023-06-27T17:07:49.865Z,100318.22
2023-06-27T17:10:16.556Z,100313.25
2023-06-27T17:12:43.123Z,100317.97
2023-06-27T17:15:10.441Z,100320.50
2023-06-27T17:17:37.356Z,100318.81
2023-06-27T17:20:04.436Z,100327.38
2023-06-27T17:22:32.234Z,100332.13
2023-06-27T17:24:58.837Z,100329.38
2023-06-27T17:27:25.602Z,100326.94
2023-06-27T17:29:52.393Z,100331.38
2023-06-27T17:32:22.391Z,100319.47
2023-06-27T17:34:49.182Z,100327.81
2023-06-27T17:37:15.909Z,100306.75
2023-06-27T17:39:42.608Z,100311.78
2023-06-27T17:42:11.135Z,100316.75
2023-06-27T17:44:37.703Z,100317.28
2023-06-27T17:47:04.551Z,100316.22
2023-06-27T17:49:31.177Z,100324.53
2023-06-27T17:51:57.817Z,100336.47
2023-06-27T17:54:25.622Z,100334.50
2023-06-27T17:56:52.257Z,100326.75
2023-06-27T17:59:18.967Z,100345.59
2023-06-27T18:01:46.232Z,100363.88
2023-06-27T18:04:12.952Z,100355.03
2023-06-27T18:06:39.937Z,100351.41
2023-06-27T18:09:06.580Z,100337.00
2023-06-27T18:11:33.483Z,100336.16
2023-06-27T18:14:00.077Z,100340.53
2023-06-27T18:16:26.717Z,100350.50
2023-06-27T18:18:53.293Z,100349.09
2023-06-27T18:21:19.917Z,100356.56
2023-06-27T18:23:46.626Z,100365.13
2023-06-27T18:26:13.740Z,100370.66
2023-06-27T18:28:40.403Z,100373.69
2023-06-27T18:31:07.083Z,100370.84
2023-06-27T18:33:34.450Z,100366.41
2023-06-27T18:36:02.615Z,100364.47
2023-06-27T18:38:29.378Z,100366.94
2023-06-27T18:40:55.969Z,100371.91
2023-06-27T18:43:22.664Z,100381.84
2023-06-27T18:45:49.292Z,100386.78
2023-06-27T18:48:16.188Z,100386.19
2023-06-27T18:50:43.038Z,100392.47
2023-06-27T18:53:09.873Z,100393.81
2023-06-27T18:55:36.462Z,100391.84
2023-06-27T18:58:03.130Z,100401.56
2023-06-27T19:00:29.704Z,100394.91
2023-06-27T19:02:56.365Z,100386.28
2023-06-27T19:05:22.968Z,100401.94
2023-06-27T19:07:49.738Z,100413.78
2023-06-27T19:10:16.498Z,100408.53
2023-06-27T19:12:43.142Z,100418.94
2023-06-27T19:15:10.171Z,100412.41
2023-06-27T19:17:36.881Z,100402.88
2023-06-27T19:20:04.300Z,100408.19
2023-06-27T19:22:31.288Z,100418.81
2023-06-27T19:24:57.871Z,100413.19
2023-06-27T19:27:24.515Z,100428.53
2023-06-27T19:29:51.160Z,100417.72
2023-06-27T19:32:17.772Z,100421.78
2023-06-27T19:34:44.364Z,100433.97
2023-06-27T19:37:11.072Z,100438.25
2023-06-27T19:39:37.690Z,100436.50
2023-06-27T19:42:04.745Z,100428.84
2023-06-27T19:44:31.346Z,100435.66
2023-06-27T19:46:58.187Z,100446.25
2023-06-27T19:49:24.808Z,100446.03
2023-06-27T19:51:51.621Z,100453.69
2023-06-27T19:54:18.351Z,100457.53
2023-06-27T19:56:45.116Z,100452.00
2023-06-27T19:59:11.755Z,100459.69
2023-06-27T20:01:38.409Z,100465.13
2023-06-27T20:04:05.154Z,100456.50
2023-06-27T20:06:31.842Z,100479.34
2023-06-27T20:08:58.496Z,100483.69
2023-06-27T20:11:25.274Z,100499.50
2023-06-27T20:13:51.909Z,100498.91
2023-06-27T20:16:18.649Z,100490.53
2023-06-27T20:18:46.364Z,100492.13
2023-06-27T20:21:13.356Z,100497.97
2023-06-27T20:23:39.980Z,100500.13
2023-06-27T20:26:06.641Z,100505.28
2023-06-27T20:28:33.232Z,100508.63
2023-06-27T20:31:02.329Z,100516.88
2023-06-27T20:33:29.115Z,100526.97
2023-06-27T20:35:55.769Z,100512.63
2023-06-27T20:38:22.491Z,100511.28
2023-06-27T20:40:49.357Z,100516.03
2023-06-27T20:43:15.997Z,100511.03
2023-06-27T20:45:42.681Z,100514.72
2023-06-27T20:48:09.500Z,100512.81
2023-06-27T20:50:36.609Z,100511.88
2023-06-27T20:53:03.207Z,100512.22
2023-06-27T20:55:29.909Z,100520.72
2023-06-27T20:57:56.573Z,100536.38
2023-06-27T21:00:23.382Z,100523.94
2023-06-27T21:02:50.542Z,100533.28
2023-06-27T21:05:17.225Z,100530.44
2023-06-27T21:07:43.818Z,100538.69
2023-06-27T21:10:10.798Z,100547.78
2023-06-27T21:12:38.093Z,100554.34
2023-06-27T21:15:06.314Z,100558.44
2023-06-27T21:17:33.025Z,100561.53
2023-06-27T21:19:59.780Z,100586.53
2023-06-27T21:22:26.407Z,100597.53
2023-06-27T21:24:53.013Z,100604.09
2023-06-27T21:27:19.605Z,100600.88
2023-06-27T21:29:46.310Z,100587.94
2023-06-27T21:32:13.103Z,100594.44
2023-06-27T21:34:39.742Z,100598.19
2023-06-27T21:37:06.642Z,100601.09
2023-06-27T21:39:33.267Z,100616.69
2023-06-27T21:41:59.896Z,100606.84
2023-06-27T21:44:26.642Z,100602.38
2023-06-27T21:46:53.639Z,100607.84
2023-06-27T21:49:20.267Z,100600.06
2023-06-27T21:51:46.886Z,100600.47
2023-06-27T21:54:13.578Z,100597.47
2023-06-27T21:56:40.273Z,100602.34
2023-06-27T21:59:07.137Z,100611.19
2023-06-27T22:01:34.056Z,100606.38
2023-06-27T22:04:01.067Z,100598.84
2023-06-27T22:06:42.137Z,100590.31
2023-06-27T22:09:10.394Z,100576.78
2023-06-27T22:11:37.006Z,100578.00
2023-06-27T22:14:03.749Z,100588.03
2023-06-27T22:16:30.443Z,100589.25
2023-06-27T22:18:57.033Z,100587.44
2023-06-27T22:21:23.654Z,100600.38
2023-06-27T22:23:53.010Z,100601.59
2023-06-27T22:26:19.672Z,100596.66
2023-06-27T22:28:46.392Z,100601.84
2023-06-27T22:31:13.110Z,100603.06
2023-06-27T22:33:39.783Z,100608.41
2023-06-27T22:36:07.665Z,100602.31
2023-06-27T22:38:34.764Z,100588.25
2023-06-27T22:41:01.958Z,100595.41
2023-06-27T22:43:28.649Z,100597.09
2023-06-27T22:45:55.304Z,100595.09
2023-06-27T22:48:21.984Z,100590.63
2023-06-27T22:50:48.640Z,100593.84
2023-06-27T22:53:15.200Z,100608.25
2023-06-27T22:55:41.827Z,100590.53
2023-06-27T22:58:08.501Z,100591.84
2023-06-27T23:00:35.238Z,100583.84
2023-06-27T23:03:02.345Z,100584.81
2023-06-27T23:05:29.009Z,100582.72
2023-06-27T23:07:55.675Z,100576.47
2023-06-27T23:10:22.783Z,100594.34
2023-06-27T23:12:49.505Z,100588.84
2023-06-27T23:15:16.451Z,100594.09
2023-06-27T23:17:43.126Z,100588.22
2023-06-27T23:20:11.217Z,100582.19
2023-06-27T23:22:38.208Z,100585.16
2023-06-27T23:25:06.927Z,100580.88
2023-06-27T23:27:36.625Z,100588.03
2023-06-27T23:30:05.105Z,100580.88
2023-06-27T23:32:32.017Z,100583.16
2023-06-27T23:35:01.526Z,100592.44
2023-06-27T23:37:28.655Z,100584.22
2023-06-27T23:39:55.339Z,100601.81
2023-06-27T23:42:21.955Z,100600.97
2023-06-27T23:44:48.731Z,100606.69
2023-06-27T23:47:16.819Z,100602.66
2023-06-27T23:49:43.564Z,100623.50
2023-06-27T23:52:10.197Z,100628.38
2023-06-27T23:54:36.773Z,100624.59
2023-06-27T23:57:03.562Z,100633.66
2023-06-27T23:59:30.185Z,100638.44
